createdAt,value
2023-01-27T00:00:28.360Z,25.08
2023-01-27T00:01:28.344Z,25.10
2023-01-27T00:02:28.400Z,25.11
2023-01-27T00:03:28.420Z,25.10
2023-01-27T00:04:28.323Z,25.10
2023-01-27T03:31:40.300Z,25.03
2023-01-27T03:32:40.160Z,25.01
2023-01-27T03:33:40.154Z,25.03
2023-01-27T03:34:40.190Z,25.01
2023-01-27T03:35:40.171Z,25.01
2023-01-27T03:36:40.130Z,25.01
2023-01-27T03:37:40.117Z,24.99
2023-01-27T03:38:40.131Z,25.04
2023-01-27T03:39:40.103Z,25.03
2023-01-27T03:40:40.104Z,25.03
2023-01-27T03:41:40.093Z,25.03
2023-01-27T03:42:40.081Z,25.03
2023-01-27T03:43:40.076Z,24.99
2023-01-27T03:44:40.085Z,25.01
2023-01-27T03:45:40.063Z,25.01
2023-01-27T03:46:40.041Z,24.99
2023-01-27T03:47:40.041Z,25.03
2023-01-27T03:48:40.052Z,24.99
2023-01-27T03:49:40.018Z,25.01
2023-01-27T03:50:40.029Z,24.99
2023-01-27T03:51:40.001Z,25.01
2023-01-27T03:52:39.992Z,25.04
2023-01-27T03:53:39.976Z,24.98
2023-01-27T03:54:39.973Z,25.01
2023-01-27T03:55:39.968Z,25.03
2023-01-27T03:56:39.953Z,24.99
2023-01-27T03:57:39.950Z,24.99
2023-01-27T03:58:39.941Z,25.01
2023-01-27T03:59:39.926Z,25.03
2023-01-27T04:00:39.920Z,24.99
2023-01-27T04:01:39.948Z,24.99
2023-01-27T04:02:39.926Z,24.99
2023-01-27T04:03:39.906Z,25.03
2023-01-27T04:04:39.892Z,25.03
2023-01-27T04:05:39.873Z,25.01
2023-01-27T04:06:39.891Z,24.99
2023-01-27T04:07:39.863Z,24.99
2023-01-27T04:08:39.849Z,25.01
2023-01-27T04:09:39.841Z,24.98
2023-01-27T04:10:39.831Z,25.01
2023-01-27T04:11:39.823Z,25.03
2023-01-27T04:12:39.815Z,25.03
2023-01-27T04:13:39.812Z,25.03
2023-01-27T04:14:39.802Z,25.01
2023-01-27T04:15:39.855Z,25.01
2023-01-27T04:16:39.783Z,25.01
2023-01-27T04:17:39.773Z,25.04
2023-01-27T04:18:39.761Z,25.01
2023-01-27T04:19:39.763Z,25.01
2023-01-27T04:20:39.754Z,24.99
2023-01-27T04:21:39.751Z,25.03
2023-01-27T04:22:39.763Z,24.99
2023-01-27T04:23:39.719Z,25.01
2023-01-27T04:24:39.708Z,25.01
2023-01-27T04:25:39.712Z,25.01
2023-01-27T04:26:39.692Z,25.04
2023-01-27T04:27:39.692Z,24.99
2023-01-27T04:28:44.690Z,25.01
2023-01-27T04:29:39.668Z,24.99
2023-01-27T04:30:39.683Z,25.01
2023-01-27T04:31:39.673Z,25.01
2023-01-27T04:32:39.641Z,25.01
2023-01-27T04:33:39.635Z,24.99
2023-01-27T04:34:39.626Z,24.99
2023-01-27T04:35:39.617Z,25.01
2023-01-27T04:36:39.613Z,24.99
2023-01-27T04:37:39.596Z,25.03
2023-01-27T04:38:39.616Z,25.01
2023-01-27T04:39:39.585Z,24.99
2023-01-27T04:40:39.572Z,24.98
2023-01-27T04:41:39.569Z,24.99
2023-01-27T04:42:39.564Z,24.99
2023-01-27T04:43:39.564Z,24.95
2023-01-27T04:44:39.539Z,24.99
2023-01-27T04:45:39.567Z,24.99
2023-01-27T04:46:39.520Z,24.97
2023-01-27T04:47:39.516Z,25.01
2023-01-27T04:48:39.507Z,24.99
2023-01-27T04:49:39.498Z,24.99
2023-01-27T04:50:39.493Z,24.99
2023-01-27T04:51:39.476Z,24.98
2023-01-27T04:52:39.469Z,25.03
2023-01-27T04:53:39.458Z,24.98
2023-01-27T04:54:39.478Z,24.98
2023-01-27T04:55:39.444Z,24.98
2023-01-27T04:56:39.444Z,24.98
2023-01-27T04:57:39.429Z,24.98
2023-01-27T04:58:39.420Z,25.01
2023-01-27T04:59:39.451Z,24.99
2023-01-27T05:00:39.402Z,24.97
2023-01-27T05:01:39.506Z,24.98
2023-01-27T05:02:39.384Z,24.97
2023-01-27T05:03:39.385Z,24.98
2023-01-27T05:04:39.373Z,24.98
2023-01-27T05:05:39.368Z,24.98
2023-01-27T05:06:39.368Z,24.99
2023-01-27T05:07:39.334Z,24.99
2023-01-27T05:08:39.327Z,24.99
2023-01-27T05:09:39.329Z,24.97
2023-01-27T05:10:39.340Z,24.99
2023-01-27T05:11:39.303Z,24.98
2023-01-27T05:12:39.299Z,24.98
2023-01-27T05:13:39.288Z,24.99
2023-01-27T05:14:39.285Z,24.98
2023-01-27T05:15:39.325Z,24.98
2023-01-27T05:16:39.278Z,24.99
2023-01-27T05:17:39.252Z,24.99
2023-01-27T05:18:39.247Z,24.99
2023-01-27T05:19:39.243Z,24.98
2023-01-27T05:20:39.228Z,24.98
2023-01-27T05:21:39.218Z,24.98
2023-01-27T05:22:39.210Z,25.01
2023-01-27T05:23:39.205Z,24.99
2023-01-27T05:24:39.195Z,25.01
2023-01-27T05:25:39.189Z,25.01
2023-01-27T05:26:39.203Z,24.99
2023-01-27T05:27:39.170Z,24.99
2023-01-27T05:28:39.156Z,24.98
2023-01-27T05:29:39.146Z,24.98
2023-01-27T05:30:39.195Z,24.98
2023-01-27T05:31:39.273Z,24.99
2023-01-27T05:32:39.129Z,25.01
2023-01-27T05:33:39.118Z,25.01
2023-01-27T05:34:39.108Z,24.99
2023-01-27T05:35:39.102Z,24.99
2023-01-27T05:36:39.088Z,24.98
2023-01-27T05:37:39.087Z,24.99
2023-01-27T05:38:39.079Z,24.99
2023-01-27T05:39:39.086Z,25.03
2023-01-27T05:42:39.230Z,24.99
2023-01-27T05:58:39.270Z,24.98
2023-01-27T06:53:39.180Z,25.18
2023-01-27T07:03:38.770Z,25.25
2023-01-27T08:07:37.829Z,25.45
2023-01-27T08:08:38.241Z,25.41
2023-01-27T08:09:37.789Z,25.43
2023-01-27T08:12:37.825Z,25.39
2023-01-27T08:14:37.829Z,25.38
2023-01-27T08:16:37.797Z,25.38
2023-01-27T08:17:37.710Z,25.38
2023-01-27T08:18:37.696Z,25.36
2023-01-27T08:20:37.725Z,25.38
2023-01-27T08:24:37.647Z,25.36
2023-01-27T08:25:37.633Z,25.38
2023-01-27T08:26:37.632Z,25.36
2023-01-27T08:28:37.635Z,25.38
2023-01-27T08:29:37.626Z,25.36
2023-01-27T08:30:37.619Z,25.38
2023-01-27T08:31:37.625Z,25.39
2023-01-27T08:33:37.571Z,25.39
2023-01-27T08:34:37.560Z,25.39
2023-01-27T08:35:37.556Z,25.38
2023-01-27T08:36:37.551Z,25.41
2023-01-27T08:37:37.822Z,25.42
2023-01-27T08:39:38.227Z,25.41
2023-01-27T08:40:37.518Z,25.39
2023-01-27T08:41:37.501Z,25.41
2023-01-27T08:46:37.459Z,25.46
2023-01-27T08:47:37.459Z,25.48
2023-01-27T08:48:37.467Z,25.50
2023-01-27T08:52:37.433Z,25.52
2023-01-27T08:54:37.617Z,25.56
2023-01-27T08:55:38.279Z,25.56
2023-01-27T08:56:37.618Z,25.56
2023-01-27T08:57:37.430Z,25.56
2023-01-27T08:58:37.570Z,25.56
2023-01-27T08:59:37.358Z,25.54
2023-01-27T09:00:37.825Z,25.56
2023-01-27T09:01:37.924Z,25.58
2023-01-27T09:02:37.335Z,25.59
2023-01-27T09:03:37.334Z,25.54
2023-01-27T09:04:37.442Z,25.59
2023-01-27T09:05:37.306Z,25.59
2023-01-27T09:06:37.287Z,25.62
2023-01-27T09:07:37.288Z,25.62
2023-01-27T09:08:37.288Z,25.59
2023-01-27T09:09:37.266Z,25.65
2023-01-27T09:10:37.299Z,25.63
2023-01-27T09:11:37.245Z,25.65
2023-01-27T09:12:37.266Z,25.62
2023-01-27T09:13:37.221Z,25.66
2023-01-27T09:14:37.309Z,25.66
2023-01-27T09:15:37.207Z,25.69
2023-01-27T09:16:37.202Z,25.69
2023-01-27T09:17:37.211Z,25.69
2023-01-27T09:18:37.331Z,25.70
2023-01-27T09:19:37.180Z,25.70
2023-01-27T09:20:37.174Z,25.72
2023-01-27T09:21:37.180Z,25.70
2023-01-27T09:22:37.195Z,25.70
2023-01-27T09:23:37.376Z,25.69
2023-01-27T09:24:37.145Z,25.68
2023-01-27T09:25:37.139Z,25.69
2023-01-27T09:26:37.161Z,25.68
2023-01-27T09:27:39.489Z,25.63
2023-01-27T09:28:37.327Z,25.66
2023-01-27T09:29:37.347Z,25.65
2023-01-27T09:30:38.295Z,25.63
2023-01-27T09:31:37.210Z,25.65
2023-01-27T09:32:37.323Z,25.62
2023-01-27T09:33:37.090Z,25.62
2023-01-27T09:34:37.063Z,25.59
2023-01-27T09:35:37.075Z,25.60
2023-01-27T09:36:37.089Z,25.60
2023-01-27T09:37:37.317Z,25.60
2023-01-27T09:38:37.014Z,25.59
2023-01-27T09:39:37.030Z,25.59
2023-01-27T09:40:37.078Z,25.59
2023-01-27T09:41:36.985Z,25.60
2023-01-27T09:42:37.420Z,25.62
2023-01-27T09:43:36.994Z,25.65
2023-01-27T09:45:36.971Z,25.68
2023-01-27T09:46:36.985Z,25.68
2023-01-27T09:47:37.020Z,25.68
2023-01-27T09:48:36.921Z,25.66
2023-01-27T09:49:36.931Z,25.66
2023-01-27T09:50:36.923Z,25.66
2023-01-27T09:51:36.913Z,25.66
2023-01-27T09:52:47.069Z,25.66
2023-01-27T09:53:37.503Z,25.63
2023-01-27T09:54:36.875Z,25.63
2023-01-27T09:55:36.880Z,25.65
2023-01-27T09:56:36.863Z,25.63
2023-01-27T09:57:37.330Z,25.62
2023-01-27T09:58:36.870Z,25.63
2023-01-27T09:59:36.847Z,25.63
2023-01-27T10:00:36.840Z,25.60
2023-01-27T10:01:36.854Z,25.62
2023-01-27T10:02:36.935Z,25.63
2023-01-27T10:03:36.812Z,25.65
2023-01-27T10:04:36.819Z,25.63
2023-01-27T10:05:36.796Z,25.65
2023-01-27T10:06:36.822Z,25.65
2023-01-27T10:07:36.843Z,25.65
2023-01-27T10:08:36.774Z,25.68
2023-01-27T10:09:36.757Z,25.68
2023-01-27T10:11:36.754Z,25.70
2023-01-27T10:12:36.856Z,25.70
2023-01-27T10:13:36.730Z,25.70
2023-01-27T10:14:36.737Z,25.70
2023-01-27T10:15:36.707Z,25.72
2023-01-27T10:16:36.754Z,25.72
2023-01-27T10:17:36.838Z,25.75
2023-01-27T10:18:36.679Z,25.72
2023-01-27T10:19:36.677Z,25.73
2023-01-27T10:20:36.672Z,25.73
2023-01-27T10:21:36.664Z,25.73
2023-01-27T10:22:36.845Z,25.75
2023-01-27T10:27:36.887Z,25.75
2023-01-27T10:28:36.956Z,25.72
2023-01-27T10:32:36.865Z,25.69
2023-01-27T10:34:36.853Z,25.63
2023-01-27T10:39:36.852Z,25.46
2023-01-27T10:42:36.846Z,25.48
2023-01-27T10:52:36.883Z,25.59
2023-01-27T10:56:36.906Z,25.63
2023-01-27T10:58:36.789Z,25.66
2023-01-27T11:09:36.979Z,25.72
2023-01-27T11:14:38.833Z,25.73
2023-01-27T11:26:36.909Z,25.79
